Trevorton, Pennsylvania
Current Conditions -  °F | °C
As of 8:53 AM on Sunday 23 Nov 2014 (Local Time) from KSEG Reporting Station
Overcast Overcast  
Wind Chill: 38°   Ceiling: 9000
Heat Index: 38°   Visibility: 9mi
Dew Point: 27°   Wind: 0mph
Humidity: 65%   Direction: NA
Pressure: 30.19"   Gusts: NA
Location:  40.78°N, 76.67°W
Report Text: KSEG 231353Z AUTO 00000KT 9SM OVC090 03/M03 A3019 RMK AO2 SLP227 T00331028 $
Loading
Personal Weather Stations






























Interactive Weather Map New forecast layout! Learn more

10-Day Weather Forecast

Advertisements
Track Severe Weather on mobile